Flight Track Log - Related Links

Times and Time Zones

All times are in EDT time to prevent confusion due to time zone crossing. See the WJA175 flight status page for this flight to view local times or setup timezone preferences in your user account.

Time Position Orientation Groundspeed Altitude Reporting Facility
EDT Latitude Longitude Course Direction KTS MPH feet Rate Location/Type
Mon 12:04:41 PM 49.9333 -97.3000 316° Northwest 210 242 3,300  Level Winnipeg Center
Mon 12:05:41 PM 49.9500 -97.4333 281° West 260 299 5,300 2,400 Climbing Winnipeg Center
Mon 12:06:41 PM 49.9500 -97.5333 270° West 280 322 8,100 2,650 Climbing Winnipeg Center
Mon 12:07:41 PM 49.9667 -97.6667 281° West 290 334 10,600 2,550 Climbing Winnipeg Center
Mon 12:08:41 PM 49.9667 -97.8000 270° West 340 391 13,200 2,850 Climbing Winnipeg Center
Mon 12:09:41 PM 49.9833 -97.9500 280° West 360 414 16,300 3,150 Climbing Winnipeg Center
Mon 12:10:41 PM 49.9833 -98.1167 270° West 370 426 19,500 2,850 Climbing Winnipeg Center
Mon 12:11:41 PM 50.0000 -98.3000 278° West 380 437 22,000 2,400 Climbing Winnipeg Center
Mon 12:12:41 PM 50.0333 -98.4500 289° West 400 460 24,300 2,200 Climbing Winnipeg Center
Mon 12:13:41 PM 50.0500 -98.6333 278° West 420 483 26,400 2,050 Climbing Winnipeg Center
Mon 12:14:41 PM 50.0667 -98.8167 278° West 430 495 28,400 1,750 Climbing Winnipeg Center
Mon 12:15:41 PM 50.0833 -99.0000 278° West 440 506 29,900 1,750 Climbing Winnipeg Center
Mon 12:16:41 PM 50.1000 -99.2167 277° West 450 518 31,900 2,000 Climbing Winnipeg Center
Mon 12:17:41 PM 50.1000 -99.4000 270° West 440 506 33,900 1,800 Climbing Winnipeg Center
Mon 12:18:41 PM 50.1167 -99.5833 278° West 440 506 35,500 1,500 Climbing Winnipeg Center
Mon 12:19:41 PM 50.1500 -99.7667 286° West 430 495 36,900 1,250 Climbing Winnipeg Center
Mon 12:20:41 PM 50.1667 -99.9500 278° West 430 495 38,000 550 Climbing Winnipeg Center
Mon 12:21:41 PM 50.1667 -100.1500 270° West 430 495 38,000  Level Winnipeg Center
Mon 12:22:41 PM 50.1833 -100.3167 279° West 430 495 38,000  Level Winnipeg Center
Mon 12:23:41 PM 50.2000 -100.5167 277° West 430 495 38,000  Level Winnipeg Center
Mon 12:24:41 PM 50.2167 -100.6833 279° West 430 495 38,000  Level Winnipeg Center
Mon 12:25:41 PM 50.2333 -100.8667 278° West 420 483 38,000  Level Winnipeg Center
Mon 12:26:41 PM 50.2500 -101.0500 278° West 420 483 38,000  Level Winnipeg Center
Mon 12:27:41 PM 50.2500 -101.2333 270° West 420 483 38,000  Level Winnipeg Center
Mon 12:28:41 PM 50.2667 -101.4167 278° West 420 483 38,000  Level Winnipeg Center
Mon 12:29:41 PM 50.2833 -101.6000 278° West 410 472 38,000  Level Winnipeg Center
Mon 12:30:41 PM 50.3000 -101.7833 278° West 420 483 38,000  Level Winnipeg Center
Mon 12:31:41 PM 50.3000 -101.9667 270° West 430 495 38,000  Level Winnipeg Center
Mon 12:32:41 PM 50.3167 -102.1333 279° West 430 495 38,000  Level Winnipeg Center
Mon 12:33:41 PM 50.3333 -102.3500 277° West 430 495 38,000  Level Winnipeg Center
Mon 12:34:41 PM 50.3500 -102.5333 278° West 430 495 38,000  Level Winnipeg Center
Mon 12:35:41 PM 50.3667 -102.7167 278° West 430 495 38,000  Level Winnipeg Center
Mon 12:36:41 PM 50.4000 -102.8833 287° West 420 483 38,000  Level Winnipeg Center
Mon 12:37:41 PM 50.4167 -103.0667 278° West 420 483 38,000  Level Winnipeg Center
Mon 12:38:41 PM 50.4500 -103.2500 286° West 420 483 38,000  Level Winnipeg Center
Mon 12:39:41 PM 50.4667 -103.4167 279° West 420 483 38,000  Level Winnipeg Center
Mon 12:40:41 PM 50.5000 -103.6000 286° West 420 483 38,000  Level Winnipeg Center
Mon 12:41:41 PM 50.5333 -103.7833 286° West 420 483 38,000  Level Winnipeg Center
Mon 12:42:41 PM 50.5500 -103.9833 278° West 420 483 38,000  Level Winnipeg Center
Mon 12:43:41 PM 50.5833 -104.1333 289° West 410 472 38,000  Level Winnipeg Center
Mon 12:44:41 PM 50.6000 -104.3333 278° West 420 483 38,000  Level Winnipeg Center
Mon 12:45:41 PM 50.6167 -104.5000 279° West 420 483 38,000  Level Winnipeg Center
Mon 12:46:41 PM 50.6500 -104.6833 286° West 420 483 38,000  Level Winnipeg Center
Mon 12:47:41 PM 50.6667 -104.8667 278° West 420 483 38,000  Level Winnipeg Center
Mon 12:48:41 PM 50.7000 -105.0667 285° West 420 483 38,000  Level Winnipeg Center
Mon 12:49:41 PM 50.7167 -105.2167 280° West 420 483 38,000  Level Winnipeg Center
Mon 12:50:41 PM 50.7500 -105.4167 285° West 420 483 38,000  Level Winnipeg Center
Mon 12:51:41 PM 50.7667 -105.5833 279° West 420 483 38,000  Level Winnipeg Center
Mon 12:52:44 PM 50.7833 -105.7333 280° West 420 483 38,000  Level Edmonton Center
Mon 12:53:44 PM 50.8000 -105.9333 278° West 420 483 38,000  Level Edmonton Center
Mon 12:54:44 PM 50.8167 -106.1167 278° West 410 472 38,000  Level Edmonton Center
Mon 12:55:44 PM 50.8333 -106.3000 278° West 420 483 38,000  Level Edmonton Center
Mon 12:56:44 PM 50.8500 -106.4833 278° West 420 483 38,000  Level Edmonton Center
Mon 12:57:44 PM 50.8667 -106.6500 279° West 420 483 38,000  Level Edmonton Center
Mon 12:58:44 PM 50.9000 -106.8667 284° West 420 483 38,000  Level Edmonton Center
Mon 12:59:44 PM 50.9167 -107.0167 280° West 420 483 38,000  Level Edmonton Center
Mon 01:00:44 PM 50.9500 -107.2167 285° West 420 483 38,000  Level Edmonton Center
Mon 01:01:44 PM 50.9500 -107.4000 270° West 430 495 38,000  Level Edmonton Center
Mon 01:02:44 PM 50.9833 -107.5833 286° West 430 495 38,000  Level Edmonton Center
Mon 01:03:44 PM 51.0000 -107.7833 278° West 430 495 38,000  Level Edmonton Center
Mon 01:04:44 PM 51.0167 -107.9667 278° West 430 495 38,000  Level Edmonton Center
Mon 01:05:44 PM 51.0333 -108.1500 278° West 430 495 38,000  Level Edmonton Center
Mon 01:06:44 PM 51.0500 -108.3500 278° West 430 495 38,000  Level Edmonton Center
Mon 01:07:44 PM 51.0833 -108.5333 286° West 430 495 38,000  Level Edmonton Center
Mon 01:08:44 PM 51.0833 -108.7333 270° West 430 495 38,000  Level Edmonton Center
Mon 01:09:41 PM 51.1167 -108.9167 286° West 430 495 38,000  Level Winnipeg Center
Mon 01:10:41 PM 51.1333 -109.1167 278° West 430 495 38,000  Level Winnipeg Center
Mon 01:12:44 PM 51.1667 -109.4833 278° West 420 483 38,000  Level Edmonton Center
Mon 01:13:44 PM 51.1667 -109.6833 270° West 420 483 38,000  Level Edmonton Center
Mon 01:14:44 PM 51.2000 -109.8333 290° West 430 495 38,000  Level Edmonton Center
Mon 01:15:44 PM 51.2000 -110.0500 270° West 430 495 38,000  Level Edmonton Center
Mon 01:16:44 PM 51.2333 -110.2500 285° West 430 495 38,000  Level Edmonton Center
Mon 01:17:44 PM 51.2333 -110.4333 270° West 430 495 38,000  Level Edmonton Center
Mon 01:18:44 PM 51.2667 -110.6333 285° West 430 495 38,000  Level Edmonton Center
Mon 01:19:44 PM 51.2667 -110.8167 270° West 430 495 38,000  Level Edmonton Center
Mon 01:20:44 PM 51.3000 -111.0167 285° West 440 506 38,000 -500 Level Edmonton Center
Mon 01:21:44 PM 51.3000 -111.2000 270° West 430 495 37,000 -1,650 Descending Edmonton Center
Mon 01:22:44 PM 51.3167 -111.4000 278° West 430 495 34,700 -2,200 Descending Edmonton Center
Mon 01:23:44 PM 51.3333 -111.5833 278° West 420 483 32,600 -2,000 Descending Edmonton Center
Mon 01:24:44 PM 51.3500 -111.7833 278° West 410 472 30,700 -1,900 Descending Edmonton Center
Mon 01:25:44 PM 51.3500 -111.9500 270° West 400 460 28,800 -1,900 Descending Edmonton Center
Mon 01:26:44 PM 51.3833 -112.1167 288° West 390 449 26,900 -1,800 Descending Edmonton Center
Mon 01:27:44 PM 51.3833 -112.2833 270° West 380 437 25,200 -1,800 Descending Edmonton Center
Mon 01:28:44 PM 51.4000 -112.4333 280° West 360 414 23,300 -1,750 Descending Edmonton Center
Mon 01:29:44 PM 51.4000 -112.6000 270° West 350 403 21,700 -1,600 Descending Edmonton Center
Mon 01:31:44 PM 51.4333 -112.9000 280° West 330 380 18,500 -1,567 Descending Edmonton Center
Mon 01:32:44 PM 51.4333 -113.0500 270° West 320 368 17,000 -1,550 Descending Edmonton Center
Mon 01:33:44 PM 51.4333 -113.1833 270° West 310 357 15,400 -1,100 Descending Edmonton Center
Mon 01:34:44 PM 51.4333 -113.2833 270° West 280 322 14,800 -800 Descending Edmonton Center
Mon 01:35:44 PM 51.3833 -113.4167 239° Southwest 280 322 13,800 -950 Descending Edmonton Center
Mon 01:36:44 PM 51.3333 -113.4833 220° Southwest 280 322 12,900 -1,000 Descending Edmonton Center
Mon 01:37:44 PM 51.2833 -113.5833 231° Southwest 270 311 11,800 -1,050 Descending Edmonton Center
Mon 01:38:44 PM 51.2500 -113.6833 242° Southwest 260 299 10,800 -1,100 Descending Edmonton Center
Mon 01:39:44 PM 51.2667 -113.8000 283° West 270 311 9,600 -1,100 Descending Edmonton Center
Mon 01:40:44 PM 51.3333 -113.9000 317° Northwest 280 322 8,600 -700 Descending Edmonton Center
Mon 01:41:44 PM 51.4000 -113.8833 North 250 288 8,200 -450 Descending Edmonton Center
Mon 01:42:44 PM 51.4333 -113.9167 328° Northwest 190 219 7,700 -450 Descending Edmonton Center
Mon 01:43:44 PM 51.4000 -113.9667 223° Southwest 190 219 7,300 -350 Descending Edmonton Center
Mon 01:44:44 PM 51.3500 -114.0000 203° Southwest 200 230 7,000 -250 Descending Edmonton Center
Mon 01:45:44 PM 51.2833 -114.0167 189° South 200 230 6,800 -650 Descending Edmonton Center
Mon 01:46:44 PM 51.2167 -114.0167 180° South 200 230 5,700 -1,050 Descending Edmonton Center
Mon 01:47:44 PM 51.1667 -114.0167 180° South 190 219 4,700 -900 Descending Edmonton Center
Mon 01:48:44 PM 51.1333 -114.0167 180° South 160 184 3,900 -550 Descending Edmonton Center
Mon 01:49:44 PM 51.1000 -114.0167 180° South 50 58 3,600 -300 Descending Edmonton Center

Login

Don't have an account? Register now (free) for customized features, flight alerts, and more!